Webcam


Nous avons rejoins la communauté cam-aéro fin 2016. Grâce au travail des développeurs du projet, nous bénéficions d'un service de webcam en ligne sur notre plateforme.

vous trouverez l'intégralité des webcam installée en france sur le site de la communauté de cam-aéro: cam-aero.eu


Webcam :

Nuit aéronautique

25 Sep 2018

Heure locale,
pour LFDL uniquement.

Lever du soleil aéronautique :07:22
Lever du soleil :07:52
Coucher du soleil :19:50
Coucher du soleil aéronautique :20:20

Metar

LFBI :
2018/09/25 04:30
LFBI 250430Z AUTO 03008KT CAVOK 06/04 Q1033 NOSIG
LFBI :
Poitiers, France (LFBI) 46-35N 000-19E 120M
Sep 25, 2018 - 12:30 AM EDT / 2018.09.25 0430 UTC
Wind: from the NNE (030 degrees) at 9 MPH (8 KT):0
Visibility: greater than 7 mile(s):0
Temperature: 42 F (6 C)
Dew Point: 39 F (4 C)
Relative Humidity: 86%
Pressure (altimeter): 30.50 in. Hg (1033 hPa)
ob: LFBI 250430Z AUTO 03008KT CAVOK 06/04 Q1033 NOSIG
cycle: 4

Afficher le metar d'une autre station :
Code OACI :

Aéroclub de Loudun


Bellevue
86200 Loudun


Contacter Michel Richez (président)

  • Mail:michel.richez@free.fr
  • Tel:09-50-38-02-06
  • Mobile:06-52-73-09-01



agrandir le plan

Newsletter

Mon e-mail :